createdAt,value
2018-12-19T00:05:13.585Z,93.90
2018-12-19T00:10:51.061Z,93.90
2018-12-19T00:13:31.525Z,94.00
2018-12-19T00:19:00.664Z,93.90
2018-12-19T00:27:42.584Z,93.60
2018-12-19T00:30:20.458Z,93.90
2018-12-19T00:33:11.273Z,94.00
2018-12-19T00:35:58.633Z,93.70
2018-12-19T00:38:36.877Z,93.80
2018-12-19T00:41:17.290Z,93.80
2018-12-19T00:46:55.699Z,94.00
2018-12-19T00:49:37.472Z,94.00
2018-12-19T00:52:17.391Z,94.00
2018-12-19T00:58:01.001Z,93.80
2018-12-19T01:15:35.302Z,94.30
2018-12-19T01:18:16.389Z,94.10
2018-12-19T01:35:55.270Z,94.90
2018-12-19T01:38:44.750Z,94.70
2018-12-19T01:41:22.479Z,94.60
2018-12-19T01:50:23.640Z,95.00
2018-12-19T01:53:01.520Z,95.00
2018-12-19T01:55:51.894Z,95.10
2018-12-19T01:58:36.527Z,94.80
2018-12-19T02:01:17.288Z,94.60
2018-12-19T02:03:56.147Z,94.50
2018-12-19T02:06:32.149Z,94.00
2018-12-19T02:09:28.745Z,94.10
2018-12-19T02:12:11.070Z,94.30
2018-12-19T02:14:44.970Z,94.60
2018-12-19T02:23:43.522Z,95.20
2018-12-19T02:29:32.724Z,95.90
2018-12-19T02:32:26.797Z,95.70
2018-12-19T02:41:16.771Z,95.60
2018-12-19T02:50:03.525Z,95.30
2018-12-19T02:58:48.833Z,94.60
2018-12-19T03:01:39.096Z,94.70
2018-12-19T03:04:19.825Z,94.90
2018-12-19T03:10:02.585Z,95.30
2018-12-19T03:12:42.995Z,95.30
2018-12-19T03:15:28.175Z,95.10
2018-12-19T03:18:16.663Z,95.20
2018-12-19T03:20:56.582Z,95.00
2018-12-19T03:23:45.098Z,94.70
2018-12-19T03:26:27.447Z,94.70
2018-12-19T03:29:16.482Z,94.60
2018-12-19T03:31:58.359Z,94.30
2018-12-19T03:40:32.396Z,94.00
2018-12-19T03:43:20.481Z,93.80
2018-12-19T03:45:59.675Z,93.90
2018-12-19T03:48:46.397Z,93.80
2018-12-19T03:51:30.931Z,93.90
2018-12-19T03:54:05.261Z,93.90
2018-12-19T03:59:41.172Z,93.50
2018-12-19T04:02:26.132Z,93.40
2018-12-19T04:08:18.805Z,93.70
2018-12-19T04:14:01.612Z,93.30
2018-12-19T04:16:48.025Z,93.60
2018-12-19T04:19:37.447Z,93.80
2018-12-19T04:25:24.536Z,93.50
2018-12-19T04:43:28.295Z,93.20
2018-12-19T04:46:18.623Z,93.40
2018-12-19T04:54:52.318Z,93.20
2018-12-19T04:57:35.875Z,93.10
2018-12-19T05:00:27.706Z,93.10
2018-12-19T05:06:20.946Z,93.20
2018-12-19T05:09:11.956Z,93.10
2018-12-19T05:12:00.290Z,93.20
2018-12-19T05:14:48.258Z,93.10
2018-12-19T05:23:42.382Z,93.70
2018-12-19T05:29:32.785Z,93.90
2018-12-19T05:35:21.826Z,93.60
2018-12-19T05:44:02.042Z,93.80
2018-12-19T05:55:45.780Z,93.90
2018-12-19T05:58:33.861Z,94.00
2018-12-19T06:16:14.264Z,94.10
2018-12-19T06:31:19.696Z,93.90
2018-12-19T06:34:10.613Z,93.80
2018-12-19T06:39:55.534Z,93.60
2018-12-19T06:42:29.727Z,93.40
2018-12-19T06:45:06.426Z,93.60
2018-12-19T06:47:42.184Z,93.20
2018-12-19T06:50:23.673Z,93.00
2018-12-19T06:52:57.966Z,93.10
2018-12-19T06:58:42.496Z,93.30
2018-12-19T07:01:22.321Z,93.20
2018-12-19T07:04:02.635Z,93.30
2018-12-19T07:06:40.103Z,93.20
2018-12-19T07:09:15.422Z,93.40
2018-12-19T07:11:49.257Z,93.60
2018-12-19T07:14:26.171Z,93.80
2018-12-19T07:17:06.465Z,93.80
2018-12-19T07:19:37.891Z,93.80
2018-12-19T07:22:23.811Z,93.90
2018-12-19T07:25:04.371Z,93.80
2018-12-19T07:27:42.341Z,93.80
2018-12-19T07:30:16.825Z,93.90
2018-12-19T07:33:08.006Z,93.80
2018-12-19T07:35:48.083Z,94.10
2018-12-19T07:38:23.519Z,94.50
2018-12-19T07:40:55.253Z,94.50
2018-12-19T07:43:36.134Z,94.30
2018-12-19T07:46:19.768Z,94.30
2018-12-19T07:48:51.796Z,94.30
2018-12-19T07:51:25.075Z,94.50
2018-12-19T07:54:00.237Z,94.50
2018-12-19T07:56:40.409Z,94.50
2018-12-19T07:59:25.044Z,94.60
2018-12-19T08:01:56.870Z,94.60
2018-12-19T08:04:26.577Z,94.70
2018-12-19T08:06:57.950Z,94.60
2018-12-19T08:09:35.300Z,94.90
2018-12-19T08:12:06.588Z,94.60
2018-12-19T08:14:47.049Z,95.00
2018-12-19T08:17:22.276Z,95.20
2018-12-19T08:20:08.564Z,94.90
2018-12-19T08:22:42.319Z,95.00
2018-12-19T08:25:20.259Z,95.20
2018-12-19T08:27:51.442Z,95.40
2018-12-19T08:30:31.056Z,95.60
2018-12-19T08:33:12.835Z,95.60
2018-12-19T08:35:46.128Z,95.60
2018-12-19T08:38:21.131Z,95.60
2018-12-19T08:40:50.417Z,95.40
2018-12-19T08:43:30.648Z,95.10
2018-12-19T08:46:14.421Z,95.00
2018-12-19T08:48:44.588Z,95.00
2018-12-19T08:51:18.555Z,94.80
2018-12-19T08:53:56.233Z,94.60
2018-12-19T08:56:43.466Z,94.80
2018-12-19T08:59:17.211Z,94.90
2018-12-19T09:01:46.485Z,95.00
2018-12-19T09:04:25.768Z,95.10
2018-12-19T09:06:55.145Z,99.60
2018-12-19T09:09:25.827Z,99.60
2018-12-19T09:11:59.136Z,96.10
2018-12-19T09:17:44.980Z,94.30
2018-12-19T09:20:18.811Z,94.20
2018-12-19T09:25:52.963Z,94.30
2018-12-19T09:28:28.536Z,94.10
2018-12-19T09:31:00.199Z,94.30
2018-12-19T09:33:31.648Z,94.60
2018-12-19T09:36:11.365Z,94.80
2018-12-19T09:38:48.772Z,94.80
2018-12-19T09:41:20.115Z,94.70
2018-12-19T09:43:57.452Z,94.50
2018-12-19T09:46:32.395Z,94.40
2018-12-19T09:49:12.252Z,94.50
2018-12-19T09:51:42.048Z,94.80
2018-12-19T09:54:17.983Z,95.00
2018-12-19T09:56:55.187Z,95.40
2018-12-19T09:59:26.375Z,95.60
2018-12-19T10:02:06.252Z,95.60
2018-12-19T10:04:43.915Z,96.00
2018-12-19T10:07:21.831Z,95.80
2018-12-19T10:09:59.655Z,95.90
2018-12-19T10:12:43.865Z,96.00
2018-12-19T10:18:16.841Z,96.10
2018-12-19T10:20:52.234Z,95.80
2018-12-19T10:23:27.736Z,95.70
2018-12-19T10:26:10.876Z,95.70
2018-12-19T10:28:44.113Z,95.60
2018-12-19T10:31:17.924Z,95.60
2018-12-19T10:33:52.757Z,95.20
2018-12-19T10:36:34.098Z,95.50
2018-12-19T10:39:16.971Z,95.50
2018-12-19T10:41:46.593Z,95.40
2018-12-19T10:44:20.825Z,95.30
2018-12-19T10:46:55.722Z,95.40
2018-12-19T10:49:33.739Z,95.50
2018-12-19T10:52:05.355Z,95.70
2018-12-19T10:54:38.541Z,96.00
2018-12-19T10:57:14.501Z,95.90
2018-12-19T10:59:48.133Z,95.90
2018-12-19T11:02:19.329Z,96.00
2018-12-19T11:04:55.465Z,96.00
2018-12-19T11:07:29.146Z,95.80
2018-12-19T11:10:02.902Z,95.80
2018-12-19T11:12:34.298Z,95.90
2018-12-19T11:15:10.429Z,95.70
2018-12-19T11:17:44.452Z,95.70
2018-12-19T11:20:18.051Z,95.70
2018-12-19T11:22:51.803Z,95.70
2018-12-19T11:25:32.618Z,95.70
2018-12-19T11:28:12.635Z,95.60
2018-12-19T11:30:53.348Z,95.40
2018-12-19T11:33:26.728Z,95.70
2018-12-19T11:36:01.479Z,96.20
2018-12-19T11:38:39.226Z,96.30
2018-12-19T11:41:12.683Z,96.70
2018-12-19T11:43:48.537Z,96.90
2018-12-19T11:46:22.493Z,97.10
2018-12-19T11:48:54.710Z,97.20
2018-12-19T11:51:28.694Z,97.20
2018-12-19T11:54:02.761Z,97.10
2018-12-19T11:56:34.710Z,97.30
2018-12-19T11:59:16.520Z,97.20
2018-12-19T12:07:53.233Z,97.60
2018-12-19T12:10:31.081Z,97.50
2018-12-19T12:13:05.703Z,97.30
2018-12-19T12:15:41.899Z,97.20
2018-12-19T12:18:22.425Z,97.20
2018-12-19T12:20:55.752Z,96.90
2018-12-19T12:23:33.664Z,97.20
2018-12-19T12:26:11.633Z,96.80
2018-12-19T12:28:45.315Z,96.50
2018-12-19T12:31:21.655Z,96.70
2018-12-19T12:33:52.814Z,96.90
2018-12-19T12:36:33.564Z,96.90
2018-12-19T12:39:08.349Z,95.80
2018-12-19T12:41:52.316Z,95.80
2018-12-19T12:47:36.094Z,95.90
2018-12-19T12:50:17.743Z,96.30
2018-12-19T12:52:55.260Z,96.30
2018-12-19T12:55:31.658Z,96.30
2018-12-19T12:58:13.903Z,96.40
2018-12-19T13:00:52.761Z,96.50
2018-12-19T13:06:37.478Z,96.70
2018-12-19T13:09:28.295Z,96.80
2018-12-19T13:12:05.146Z,96.70
2018-12-19T13:14:38.879Z,96.40
2018-12-19T13:17:18.562Z,96.40
2018-12-19T13:19:55.104Z,96.50
2018-12-19T13:28:09.893Z,96.30
2018-12-19T13:30:48.940Z,96.30
2018-12-19T13:36:13.595Z,96.40
2018-12-19T13:38:53.937Z,96.40
2018-12-19T13:41:34.124Z,96.70
2018-12-19T13:44:12.294Z,96.60
2018-12-19T13:46:59.356Z,96.70
2018-12-19T13:49:38.798Z,96.40
2018-12-19T13:52:20.711Z,96.60
2018-12-19T13:55:00.492Z,96.80
2018-12-19T13:57:33.699Z,97.50
2018-12-19T14:00:14.783Z,97.30
2018-12-19T14:02:54.553Z,97.20
2018-12-19T14:05:38.455Z,97.10
2018-12-19T14:14:22.012Z,96.80
2018-12-19T14:17:03.081Z,96.80
2018-12-19T14:19:44.334Z,96.80
2018-12-19T14:22:21.042Z,96.70
2018-12-19T14:24:54.651Z,96.70
2018-12-19T14:27:34.353Z,96.60
2018-12-19T14:30:06.483Z,96.60
2018-12-19T14:38:24.123Z,96.70
2018-12-19T14:41:00.203Z,96.70
2018-12-19T14:43:41.933Z,96.70
2018-12-19T14:46:19.729Z,96.70
2018-12-19T14:48:54.250Z,96.60
2018-12-19T14:51:30.338Z,97.00
2018-12-19T14:54:04.997Z,97.00
2018-12-19T14:56:51.664Z,97.00
2018-12-19T14:59:31.574Z,96.80
2018-12-19T15:02:03.045Z,96.40
2018-12-19T15:04:38.839Z,96.60
2018-12-19T15:07:22.344Z,96.90
2018-12-19T15:09:58.486Z,96.80
2018-12-19T15:12:38.967Z,96.60
2018-12-19T15:15:14.702Z,96.50
2018-12-19T15:17:53.117Z,96.60
2018-12-19T15:23:29.032Z,96.60
2018-12-19T15:26:10.616Z,96.70
2018-12-19T15:28:45.096Z,96.70
2018-12-19T15:31:20.045Z,96.60
2018-12-19T15:34:02.161Z,96.80
2018-12-19T15:36:37.042Z,96.60
2018-12-19T15:39:15.095Z,96.60
2018-12-19T15:41:53.093Z,96.70
2018-12-19T15:47:34.582Z,96.70
2018-12-19T15:50:07.569Z,96.90
2018-12-19T15:52:38.377Z,96.80
2018-12-19T15:55:18.020Z,96.70
2018-12-19T15:57:49.544Z,96.70
2018-12-19T16:00:26.921Z,96.60
2018-12-19T16:03:00.823Z,96.70
2018-12-19T16:05:34.441Z,96.70
2018-12-19T16:08:09.281Z,96.70
2018-12-19T16:10:45.662Z,96.70
2018-12-19T16:19:16.838Z,96.50
2018-12-19T16:21:59.681Z,96.70
2018-12-19T16:24:36.451Z,96.80
2018-12-19T16:27:14.140Z,97.10
2018-12-19T16:29:54.362Z,97.10
2018-12-19T16:32:27.672Z,97.00
2018-12-19T16:35:02.588Z,96.90
2018-12-19T16:37:38.185Z,97.00
2018-12-19T16:40:18.169Z,97.00
2018-12-19T16:42:55.381Z,97.10
2018-12-19T16:45:33.310Z,97.10
2018-12-19T16:48:13.355Z,97.20
2018-12-19T16:50:53.704Z,97.20
2018-12-19T16:53:25.531Z,97.20
2018-12-19T16:56:12.112Z,97.10
2018-12-19T16:58:47.648Z,97.20
2018-12-19T17:01:28.203Z,97.30
2018-12-19T17:04:03.121Z,97.30
2018-12-19T17:06:38.890Z,97.30
2018-12-19T17:09:12.643Z,97.40
2018-12-19T17:11:46.448Z,97.40
2018-12-19T17:14:21.301Z,97.20
2018-12-19T17:16:55.303Z,97.00
2018-12-19T17:22:19.545Z,96.90
2018-12-19T17:27:48.604Z,97.40
2018-12-19T17:30:23.288Z,97.60
2018-12-19T17:35:43.132Z,98.00
2018-12-19T17:38:29.425Z,97.80
2018-12-19T17:41:08.690Z,97.90
2018-12-19T17:43:48.794Z,97.90
2018-12-19T17:52:15.440Z,97.90
2018-12-19T17:54:55.987Z,97.80
2018-12-19T17:57:35.612Z,97.70
2018-12-19T18:00:14.107Z,97.70
2018-12-19T18:02:50.609Z,97.70
2018-12-19T18:05:25.655Z,98.00
2018-12-19T18:08:03.446Z,97.90
2018-12-19T18:10:41.331Z,98.10
2018-12-19T18:13:20.623Z,98.20
2018-12-19T18:16:03.214Z,98.30
2018-12-19T18:18:38.763Z,98.30
2018-12-19T18:21:12.789Z,98.20
2018-12-19T18:26:37.162Z,98.10
2018-12-19T18:34:40.036Z,97.60
2018-12-19T18:37:17.940Z,97.50
2018-12-19T18:42:38.626Z,97.30
2018-12-19T18:45:12.741Z,97.30
2018-12-19T18:47:48.836Z,97.40
2018-12-19T18:50:23.997Z,97.50
2018-12-19T18:52:57.724Z,97.50
2018-12-19T18:58:24.510Z,97.50
2018-12-19T19:01:00.619Z,97.50
2018-12-19T19:03:35.001Z,97.80
2018-12-19T19:06:14.537Z,97.90
2018-12-19T19:11:34.209Z,98.40
2018-12-19T19:14:14.411Z,98.40
2018-12-19T19:16:48.806Z,98.30
2018-12-19T19:19:24.527Z,98.40
2018-12-19T19:22:02.093Z,98.20
2018-12-19T19:24:39.921Z,98.30
2018-12-19T19:27:20.314Z,98.20
2018-12-19T19:30:07.479Z,98.20
2018-12-19T19:32:47.132Z,98.10
2018-12-19T19:35:26.872Z,98.00
2018-12-19T19:38:06.502Z,98.20
2018-12-19T19:40:42.163Z,98.00
2018-12-19T19:43:16.262Z,97.80
2018-12-19T19:45:50.384Z,97.90
2018-12-19T19:48:24.008Z,97.90
2018-12-19T19:50:59.271Z,97.70
2018-12-19T19:53:36.794Z,98.00
2018-12-19T19:56:21.415Z,98.20
2018-12-19T19:59:06.138Z,98.30
2018-12-19T20:07:22.903Z,98.10
2018-12-19T20:12:49.725Z,98.10
2018-12-19T20:15:35.699Z,97.70
2018-12-19T20:18:16.700Z,97.60
2018-12-19T20:23:32.659Z,98.00
2018-12-19T20:26:20.306Z,98.00
2018-12-19T20:28:53.559Z,98.00
2018-12-19T20:31:25.801Z,97.90
2018-12-19T20:34:00.959Z,97.80
2018-12-19T20:39:26.198Z,97.80
2018-12-19T20:41:58.467Z,97.70
2018-12-19T20:44:32.448Z,97.60
2018-12-19T20:47:07.347Z,97.70
2018-12-19T20:49:47.215Z,97.50
2018-12-19T20:52:20.448Z,97.60
2018-12-19T20:55:00.666Z,97.70
2018-12-19T20:57:33.955Z,97.70
2018-12-19T21:00:07.574Z,97.80
2018-12-19T21:02:38.759Z,97.80
2018-12-19T21:05:14.174Z,97.70
2018-12-19T21:07:47.846Z,97.70
2018-12-19T21:10:22.800Z,97.80
2018-12-19T21:12:56.498Z,97.80
2018-12-19T21:15:31.389Z,97.80
2018-12-19T21:18:11.679Z,97.80
2018-12-19T21:20:46.976Z,98.00
2018-12-19T21:23:21.661Z,97.90
2018-12-19T21:25:56.332Z,97.90
2018-12-19T21:28:36.417Z,97.90
2018-12-19T21:31:11.589Z,98.00
2018-12-19T21:33:49.187Z,98.10
2018-12-19T21:36:24.145Z,98.00
2018-12-19T21:38:55.327Z,97.90
2018-12-19T21:41:28.493Z,97.80
2018-12-19T21:44:03.270Z,97.70
2018-12-19T21:46:38.815Z,97.70
2018-12-19T21:49:14.709Z,97.50
2018-12-19T21:51:51.602Z,97.50
2018-12-19T21:54:32.119Z,97.40
2018-12-19T21:57:10.119Z,97.60
2018-12-19T22:02:35.386Z,97.80
2018-12-19T22:05:12.642Z,98.00
2018-12-19T22:07:47.454Z,98.20
2018-12-19T22:28:27.054Z,99.20
2018-12-19T22:31:00.935Z,99.40
2018-12-19T22:33:45.271Z,99.00
2018-12-19T22:36:21.051Z,98.90
2018-12-19T22:41:58.237Z,98.70
2018-12-19T22:44:32.933Z,98.50
2018-12-19T22:47:04.448Z,98.30
2018-12-19T22:49:37.622Z,98.10
2018-12-19T22:52:11.395Z,98.10
2018-12-19T22:54:47.390Z,97.60
2018-12-19T22:57:27.364Z,97.80
2018-12-19T23:00:01.852Z,97.80
2018-12-19T23:02:42.152Z,97.80
2018-12-19T23:05:52.547Z,97.80
2018-12-19T23:08:30.504Z,97.80
2018-12-19T23:11:08.371Z,97.60
2018-12-19T23:13:41.979Z,97.60
2018-12-19T23:16:17.205Z,97.70
2018-12-19T23:18:57.100Z,97.60
2018-12-19T23:21:31.454Z,97.60
2018-12-19T23:24:09.038Z,97.60
2018-12-19T23:26:55.817Z,97.50
2018-12-19T23:29:31.281Z,97.50
2018-12-19T23:32:05.042Z,97.50
2018-12-19T23:34:47.807Z,97.50
2018-12-19T23:37:26.355Z,97.50
2018-12-19T23:39:56.025Z,97.50
2018-12-19T23:42:29.190Z,97.50
2018-12-19T23:45:06.944Z,97.50
2018-12-19T23:47:42.742Z,97.40
2018-12-19T23:50:17.766Z,97.40
2018-12-19T23:52:49.410Z,97.50
2018-12-19T23:55:20.275Z,97.40
2018-12-19T23:57:55.455Z,97.30
